createdAt,value
2022-12-26T00:01:55.211Z,30.10
2022-12-26T00:04:51.799Z,38.90
2022-12-26T00:07:12.869Z,38.67
2022-12-26T00:09:41.568Z,41.07
2022-12-26T00:12:10.322Z,37.97
2022-12-26T00:14:41.260Z,36.67
2022-12-26T00:17:12.064Z,39.03
2022-12-26T00:19:40.842Z,35.07
2022-12-26T00:22:12.239Z,32.50
2022-12-26T00:24:42.011Z,35.23
2022-12-26T00:27:10.784Z,32.30
2022-12-26T00:29:41.134Z,37.90
2022-12-26T00:32:10.025Z,38.30
2022-12-26T00:34:39.812Z,33.33
2022-12-26T00:37:08.250Z,37.27
2022-12-26T00:39:40.269Z,41.13
2022-12-26T00:42:09.049Z,32.40
2022-12-26T00:44:38.040Z,34.80
2022-12-26T00:47:08.193Z,35.73
2022-12-26T00:50:12.666Z,33.07
2022-12-26T00:52:25.744Z,39.17
2022-12-26T00:54:56.685Z,38.57
2022-12-26T00:57:25.251Z,38.60
2022-12-26T00:59:53.729Z,42.57
2022-12-26T01:02:42.109Z,44.20
2022-12-26T01:05:13.364Z,47.17
2022-12-26T01:08:23.260Z,50.93
2022-12-26T01:10:31.371Z,41.43
2022-12-26T01:13:00.157Z,44.77
2022-12-26T01:15:28.868Z,44.37
2022-12-26T01:18:00.852Z,43.93
2022-12-26T01:20:29.942Z,38.53
2022-12-26T01:22:58.675Z,48.17
2022-12-26T01:25:27.393Z,41.33
2022-12-26T01:27:55.987Z,42.33
2022-12-26T01:30:24.930Z,42.70
2022-12-26T01:32:53.437Z,53.37
2022-12-26T01:35:23.324Z,45.20
2022-12-26T01:37:53.254Z,45.93
2022-12-26T01:40:22.203Z,47.40
2022-12-26T01:42:50.810Z,46.43
2022-12-26T01:45:30.921Z,52.67
2022-12-26T01:48:04.795Z,46.50
2022-12-26T01:50:40.079Z,49.80
2022-12-26T01:53:16.615Z,52.67
2022-12-26T01:55:49.845Z,53.90
2022-12-26T01:58:22.503Z,55.77
2022-12-26T02:00:51.548Z,57.17
2022-12-26T02:03:37.412Z,60.57
2022-12-26T02:06:12.183Z,43.87
2022-12-26T02:08:40.832Z,60.57
2022-12-26T02:11:14.597Z,58.83
2022-12-26T02:13:43.609Z,55.67
2022-12-26T02:16:15.649Z,58.03
2022-12-26T02:18:44.071Z,62.43
2022-12-26T02:21:38.663Z,65.83
2022-12-26T02:24:40.502Z,62.83
2022-12-26T02:27:33.605Z,65.40
2022-12-26T02:30:23.343Z,61.30
2022-12-26T02:33:20.838Z,53.33
2022-12-26T02:36:01.649Z,54.40
2022-12-26T02:38:37.645Z,51.03
2022-12-26T02:41:21.900Z,41.13
2022-12-26T02:44:00.595Z,52.37
2022-12-26T02:46:54.668Z,55.13
2022-12-26T02:49:52.825Z,39.97
2022-12-26T02:52:48.273Z,40.07
2022-12-26T02:55:39.845Z,49.20
2022-12-26T02:58:35.363Z,44.27
2022-12-26T03:01:25.985Z,42.17
2022-12-26T03:04:15.375Z,44.63
2022-12-26T03:07:06.366Z,42.50
2022-12-26T03:09:54.360Z,44.93
2022-12-26T03:12:54.443Z,38.90
2022-12-26T03:15:25.600Z,37.30
2022-12-26T03:17:57.727Z,38.30
2022-12-26T03:20:30.138Z,41.40
2022-12-26T03:23:02.152Z,35.37
2022-12-26T03:25:57.938Z,30.70
2022-12-26T03:28:27.153Z,35.37
2022-12-26T03:30:59.803Z,34.90
2022-12-26T03:33:50.247Z,36.10
2022-12-26T03:36:33.070Z,44.87
2022-12-26T03:39:15.336Z,40.53
2022-12-26T03:42:08.756Z,35.20
2022-12-26T03:44:59.516Z,41.87
2022-12-26T03:47:48.004Z,40.63
2022-12-26T03:50:41.295Z,36.03
2022-12-26T03:53:36.350Z,34.97
2022-12-26T03:56:32.599Z,30.37
2022-12-26T03:59:24.102Z,35.37
2022-12-26T04:02:10.986Z,32.37
2022-12-26T04:05:01.805Z,34.57
2022-12-26T04:07:57.907Z,36.23
2022-12-26T04:10:51.394Z,34.43
2022-12-26T04:13:41.242Z,40.57
2022-12-26T04:16:34.560Z,37.63
2022-12-26T04:19:26.687Z,41.20
2022-12-26T04:22:17.914Z,44.67
2022-12-26T04:25:14.495Z,46.00
2022-12-26T04:28:02.374Z,46.23
2022-12-26T04:30:52.646Z,40.57
2022-12-26T04:33:43.883Z,42.37
2022-12-26T04:36:35.027Z,42.90
2022-12-26T04:39:25.234Z,37.83
2022-12-26T04:42:13.239Z,44.83
2022-12-26T04:44:44.063Z,47.97
2022-12-26T04:47:13.245Z,42.73
2022-12-26T04:50:03.021Z,42.60
2022-12-26T04:52:45.699Z,39.00
2022-12-26T04:55:14.307Z,38.70
2022-12-26T04:57:42.758Z,35.40
2022-12-26T05:00:14.168Z,29.27
2022-12-26T05:03:00.314Z,37.90
2022-12-26T05:05:48.265Z,36.90
2022-12-26T05:08:43.331Z,26.60
2022-12-26T05:11:11.754Z,32.30
2022-12-26T05:13:40.682Z,31.23
2022-12-26T05:16:29.165Z,28.97
2022-12-26T05:19:15.239Z,30.47
2022-12-26T05:22:01.586Z,28.80
2022-12-26T05:24:52.126Z,30.07
2022-12-26T05:27:39.373Z,28.50
2022-12-26T05:30:09.360Z,24.33
2022-12-26T05:32:56.624Z,28.43
2022-12-26T05:35:27.165Z,23.13
2022-12-26T05:37:56.653Z,25.80
2022-12-26T05:40:25.057Z,29.67
2022-12-26T05:42:53.467Z,25.43
2022-12-26T05:45:21.890Z,29.63
2022-12-26T05:47:52.421Z,20.10
2022-12-26T05:50:20.897Z,20.93
2022-12-26T05:52:49.260Z,25.73
2022-12-26T05:55:18.000Z,24.17
2022-12-26T05:57:46.394Z,22.50
2022-12-26T06:00:16.111Z,23.97
2022-12-26T06:02:45.056Z,23.17
2022-12-26T06:05:14.853Z,28.53
2022-12-26T06:07:43.310Z,24.53
2022-12-26T06:10:12.238Z,26.63
2022-12-26T06:12:40.575Z,27.17
2022-12-26T06:15:10.244Z,28.73
2022-12-26T06:17:39.273Z,26.47
2022-12-26T06:20:09.473Z,25.37
2022-12-26T06:22:39.672Z,21.97
2022-12-26T06:25:09.388Z,22.33
2022-12-26T06:27:38.301Z,29.77
2022-12-26T06:30:09.745Z,27.73
2022-12-26T06:32:38.300Z,32.57
2022-12-26T06:35:07.473Z,37.17
2022-12-26T06:37:35.812Z,32.97
2022-12-26T06:40:07.158Z,37.43
2022-12-26T06:42:35.886Z,46.40
2022-12-26T06:45:04.587Z,51.97
2022-12-26T06:47:33.009Z,52.20
2022-12-26T06:50:01.558Z,60.20
2022-12-26T06:52:30.247Z,50.13
2022-12-26T06:54:59.066Z,55.70
2022-12-26T06:57:29.518Z,52.40
2022-12-26T06:59:58.077Z,49.10
2022-12-26T07:02:26.987Z,50.10
2022-12-26T07:04:55.422Z,46.57
2022-12-26T07:07:23.820Z,61.60
2022-12-26T07:09:52.259Z,44.83
2022-12-26T07:12:22.139Z,42.67
2022-12-26T07:14:53.428Z,41.30
2022-12-26T07:17:24.150Z,38.10
2022-12-26T07:19:52.884Z,38.33
2022-12-26T07:22:21.346Z,33.73
2022-12-26T07:24:50.174Z,36.93
2022-12-26T07:27:18.615Z,32.27
2022-12-26T07:29:47.925Z,40.27
2022-12-26T07:32:17.786Z,37.50
2022-12-26T07:34:46.444Z,44.03
2022-12-26T07:37:15.153Z,34.07
2022-12-26T07:39:43.569Z,32.73
2022-12-26T07:42:11.994Z,37.50
2022-12-26T07:44:40.663Z,34.87
2022-12-26T07:47:09.616Z,32.87
2022-12-26T07:49:39.588Z,33.27
2022-12-26T07:52:08.042Z,30.47
2022-12-26T07:54:36.597Z,24.03
2022-12-26T07:57:38.315Z,21.07
2022-12-26T07:59:53.971Z,21.23
2022-12-26T08:02:24.209Z,20.80
2022-12-26T08:04:54.794Z,23.17
2022-12-26T08:07:23.280Z,19.07
2022-12-26T08:09:52.179Z,20.70
2022-12-26T08:12:21.877Z,17.57
2022-12-26T08:14:50.469Z,15.43
2022-12-26T08:17:19.285Z,14.60
2022-12-26T08:19:48.095Z,12.13
2022-12-26T08:22:17.983Z,13.30
2022-12-26T08:24:46.751Z,12.80
2022-12-26T08:27:16.191Z,9.20
2022-12-26T08:29:44.649Z,8.43
2022-12-26T08:32:13.011Z,12.33
2022-12-26T08:34:41.498Z,10.83
2022-12-26T08:37:09.879Z,9.37
2022-12-26T08:39:40.131Z,8.80
2022-12-26T08:42:08.657Z,9.90
2022-12-26T08:44:37.121Z,11.87
2022-12-26T08:47:06.380Z,8.87
2022-12-26T08:49:34.973Z,10.93
2022-12-26T08:52:03.656Z,9.87
2022-12-26T08:54:32.723Z,9.50
2022-12-26T08:57:02.913Z,12.37
2022-12-26T08:59:32.248Z,11.47
2022-12-26T09:02:04.268Z,9.77
2022-12-26T09:04:33.289Z,12.43
2022-12-26T09:07:01.942Z,10.37
2022-12-26T09:09:30.686Z,16.93
2022-12-26T09:11:59.603Z,12.30
2022-12-26T09:14:31.237Z,16.03
2022-12-26T09:17:00.296Z,9.13
2022-12-26T09:19:32.468Z,10.33
2022-12-26T09:22:18.680Z,9.93
2022-12-26T09:24:47.250Z,12.47
2022-12-26T09:27:23.619Z,11.97
2022-12-26T09:29:56.241Z,11.30
2022-12-26T09:32:25.118Z,11.90
2022-12-26T09:34:53.624Z,8.27
2022-12-26T09:37:22.773Z,8.07
2022-12-26T09:39:51.747Z,13.37
2022-12-26T09:42:27.594Z,9.37
2022-12-26T09:45:04.875Z,8.07
2022-12-26T09:47:41.604Z,9.33
2022-12-26T09:50:16.535Z,7.13
2022-12-26T09:52:51.499Z,8.33
2022-12-26T09:55:31.802Z,6.97
2022-12-26T09:58:06.304Z,9.00
2022-12-26T10:00:44.608Z,10.07
2022-12-26T10:03:13.888Z,10.43
2022-12-26T10:05:56.949Z,6.83
2022-12-26T10:08:31.262Z,11.40
2022-12-26T10:11:03.331Z,6.47
2022-12-26T10:13:40.164Z,5.20
2022-12-26T10:16:16.718Z,7.80
2022-12-26T10:18:55.940Z,4.17
2022-12-26T10:21:33.344Z,5.60
2022-12-26T10:24:05.549Z,4.23
2022-12-26T10:26:40.466Z,7.13
2022-12-26T10:29:18.403Z,7.23
2022-12-26T10:31:54.647Z,7.00
2022-12-26T10:34:33.800Z,6.03
2022-12-26T10:37:05.000Z,5.97
2022-12-26T10:39:47.418Z,5.03
2022-12-26T10:42:24.663Z,5.60
2022-12-26T10:44:53.792Z,5.27
2022-12-26T10:47:34.369Z,5.77
2022-12-26T10:50:03.807Z,5.53
2022-12-26T10:52:39.644Z,9.30
2022-12-26T10:55:28.526Z,4.80
2022-12-26T10:58:06.891Z,4.70
2022-12-26T11:00:37.159Z,5.93
2022-12-26T11:03:12.207Z,4.90
2022-12-26T11:08:43.049Z,6.00
2022-12-26T11:11:18.155Z,5.27
2022-12-26T11:13:50.771Z,6.80
2022-12-26T11:16:27.497Z,5.47
2022-12-26T11:19:00.629Z,7.17
2022-12-26T11:21:32.529Z,5.33
2022-12-26T11:24:18.022Z,5.83
2022-12-26T11:26:47.019Z,4.30
2022-12-26T11:29:18.316Z,6.63
2022-12-26T11:32:01.933Z,5.17
2022-12-26T11:34:46.446Z,6.53
2022-12-26T11:37:28.168Z,16.20
2022-12-26T11:40:07.110Z,10.50
2022-12-26T11:42:38.656Z,7.90
2022-12-26T11:45:18.414Z,5.30
2022-12-26T11:47:53.853Z,3.40
2022-12-26T11:50:34.617Z,4.23
2022-12-26T11:53:10.608Z,4.73
2022-12-26T11:55:40.628Z,4.90
2022-12-26T11:58:21.703Z,4.20
2022-12-26T12:01:25.868Z,5.67
2022-12-26T12:03:58.328Z,5.87
2022-12-26T12:06:59.403Z,6.17
2022-12-26T12:09:39.604Z,2.57
2022-12-26T12:12:21.428Z,3.57
2022-12-26T12:15:04.220Z,5.37
2022-12-26T12:17:42.310Z,3.57
2022-12-26T12:20:33.705Z,5.23
2022-12-26T12:23:26.556Z,4.53
2022-12-26T12:26:11.053Z,5.73
2022-12-26T12:29:20.293Z,7.23
2022-12-26T12:32:09.669Z,11.80
2022-12-26T12:35:03.861Z,4.80
2022-12-26T12:37:46.281Z,7.33
2022-12-26T12:40:34.934Z,6.80
2022-12-26T12:43:21.095Z,6.13
2022-12-26T12:46:22.851Z,11.17
2022-12-26T12:49:10.471Z,7.43
2022-12-26T12:51:51.460Z,9.27
2022-12-26T12:54:52.129Z,12.10
2022-12-26T12:57:37.347Z,10.13
2022-12-26T13:00:27.763Z,11.20
2022-12-26T13:03:20.214Z,10.53
2022-12-26T13:05:57.510Z,11.97
2022-12-26T13:08:34.864Z,11.97
2022-12-26T13:11:12.377Z,10.17
2022-12-26T13:13:51.642Z,14.20
2022-12-26T13:16:34.818Z,14.63
2022-12-26T13:19:09.648Z,8.60
2022-12-26T13:21:41.612Z,13.90
2022-12-26T13:24:29.599Z,17.07
2022-12-26T13:27:08.666Z,14.80
2022-12-26T13:29:45.289Z,9.50
2022-12-26T13:32:27.421Z,12.13
2022-12-26T13:35:05.803Z,12.17
2022-12-26T13:37:59.363Z,10.17
2022-12-26T13:40:40.139Z,12.17
2022-12-26T13:43:36.574Z,13.30
2022-12-26T13:47:00.675Z,10.50
2022-12-26T13:49:39.592Z,11.77
2022-12-26T13:52:43.229Z,9.87
2022-12-26T13:55:48.532Z,8.60
2022-12-26T13:58:45.137Z,11.93
2022-12-26T14:01:32.648Z,8.63
2022-12-26T14:04:29.945Z,10.37
2022-12-26T14:07:27.569Z,7.77
2022-12-26T14:10:19.963Z,10.53
2022-12-26T14:13:04.313Z,13.23
2022-12-26T14:15:53.485Z,11.67
2022-12-26T14:18:50.059Z,14.50
2022-12-26T14:21:43.429Z,10.17
2022-12-26T14:24:32.753Z,11.37
2022-12-26T14:27:27.653Z,14.33
2022-12-26T14:30:16.689Z,13.70
2022-12-26T14:33:05.024Z,11.57
2022-12-26T14:35:42.190Z,10.70
2022-12-26T14:38:34.061Z,13.17
2022-12-26T14:41:30.798Z,10.63
2022-12-26T14:44:16.293Z,10.60
2022-12-26T14:47:09.508Z,13.77
2022-12-26T14:49:53.358Z,16.03
2022-12-26T14:52:49.957Z,12.60
2022-12-26T14:55:47.390Z,11.00
2022-12-26T14:58:40.842Z,11.07
2022-12-26T15:01:51.486Z,13.07
2022-12-26T15:04:46.745Z,10.33
2022-12-26T15:07:50.569Z,9.23
2022-12-26T15:11:04.601Z,12.53
2022-12-26T15:13:54.187Z,10.97
2022-12-26T15:16:44.314Z,13.63
2022-12-26T15:19:40.745Z,12.20
2022-12-26T15:22:56.556Z,10.43
2022-12-26T15:26:02.171Z,9.57
2022-12-26T15:29:16.059Z,10.57
2022-12-26T15:32:07.988Z,10.13
2022-12-26T15:35:07.663Z,10.07
2022-12-26T15:37:57.943Z,8.93
2022-12-26T15:40:30.358Z,11.00
2022-12-26T15:43:42.550Z,7.53
2022-12-26T15:46:20.286Z,10.67
2022-12-26T15:49:19.887Z,9.87
2022-12-26T15:52:11.038Z,12.23
2022-12-26T15:55:16.136Z,10.53
2022-12-26T15:57:52.619Z,14.70
2022-12-26T16:00:26.379Z,11.23
2022-12-26T16:03:18.392Z,13.40
2022-12-26T16:06:02.491Z,12.63
2022-12-26T16:09:09.804Z,13.00
2022-12-26T16:11:51.275Z,7.73
2022-12-26T16:14:30.564Z,12.23
2022-12-26T16:17:19.068Z,12.07
2022-12-26T16:19:53.508Z,10.93
2022-12-26T16:22:44.396Z,11.00
2022-12-26T16:25:19.631Z,13.87
2022-12-26T16:27:51.370Z,18.13
2022-12-26T16:30:23.882Z,16.73
2022-12-26T16:32:56.385Z,17.40
2022-12-26T16:35:28.689Z,15.77
2022-12-26T16:38:00.493Z,16.63
2022-12-26T16:40:33.191Z,18.73
2022-12-26T16:43:05.270Z,18.40
2022-12-26T16:45:37.831Z,12.77
2022-12-26T16:48:08.610Z,17.00
2022-12-26T16:50:51.104Z,19.80
2022-12-26T16:53:22.118Z,17.30
2022-12-26T16:55:57.265Z,13.90
2022-12-26T16:58:28.998Z,16.97
2022-12-26T17:01:11.352Z,10.20
2022-12-26T17:03:50.952Z,14.07
2022-12-26T17:06:28.589Z,15.73
2022-12-26T17:09:00.420Z,18.43
2022-12-26T17:11:32.360Z,14.17
2022-12-26T17:14:03.167Z,12.93
2022-12-26T17:16:44.697Z,15.70
2022-12-26T17:19:22.495Z,16.10
2022-12-26T17:22:24.565Z,12.07
2022-12-26T17:25:26.844Z,13.83
2022-12-26T17:28:24.491Z,11.33
2022-12-26T17:30:54.596Z,11.60
2022-12-26T17:33:29.688Z,11.17
2022-12-26T17:37:00.512Z,7.23
2022-12-26T17:39:14.457Z,8.30
2022-12-26T17:41:52.430Z,8.10
2022-12-26T17:44:42.451Z,12.23
2022-12-26T17:47:19.512Z,11.90
2022-12-26T17:49:50.442Z,10.23
2022-12-26T17:52:25.984Z,11.33
2022-12-26T17:54:57.996Z,9.83
2022-12-26T17:57:37.050Z,8.13
2022-12-26T18:00:19.777Z,6.53
2022-12-26T18:02:49.368Z,5.90
2022-12-26T18:05:27.649Z,14.90
2022-12-26T18:07:57.644Z,6.87
2022-12-26T18:10:33.645Z,12.17
2022-12-26T18:13:04.346Z,10.97
2022-12-26T18:15:36.495Z,9.43
2022-12-26T18:18:05.719Z,8.73
2022-12-26T18:20:34.767Z,7.77
2022-12-26T18:23:03.465Z,9.03
2022-12-26T18:25:32.160Z,7.77
2022-12-26T18:28:03.201Z,8.90
2022-12-26T18:30:33.195Z,8.43
2022-12-26T18:33:03.556Z,5.67
2022-12-26T18:35:33.095Z,12.10
2022-12-26T18:38:01.967Z,11.07
2022-12-26T18:40:36.941Z,6.43
2022-12-26T18:43:09.261Z,7.40
2022-12-26T18:45:45.272Z,6.33
2022-12-26T18:48:17.252Z,7.40
2022-12-26T18:50:47.293Z,6.60
2022-12-26T18:53:18.242Z,7.03
2022-12-26T18:56:08.130Z,12.70
2022-12-26T18:58:43.445Z,7.77
2022-12-26T19:01:32.742Z,6.30
2022-12-26T19:04:05.775Z,9.43
2022-12-26T19:06:40.173Z,7.10
2022-12-26T19:09:20.395Z,10.63
2022-12-26T19:11:49.369Z,11.33
2022-12-26T19:14:28.045Z,11.60
2022-12-26T19:17:08.652Z,7.33
2022-12-26T19:19:41.924Z,9.27
2022-12-26T19:22:16.881Z,8.47
2022-12-26T19:24:53.890Z,10.03
2022-12-26T19:27:26.042Z,8.70
2022-12-26T19:29:56.667Z,9.03
2022-12-26T19:32:28.379Z,8.67
2022-12-26T19:34:58.007Z,13.77
2022-12-26T19:37:33.221Z,9.97
2022-12-26T19:40:02.174Z,10.63
2022-12-26T19:42:34.750Z,8.63
2022-12-26T19:45:08.779Z,8.80
2022-12-26T19:47:41.490Z,6.87
2022-12-26T19:50:12.770Z,14.37
2022-12-26T19:52:42.388Z,7.97
2022-12-26T19:55:16.104Z,18.07
2022-12-26T19:57:45.017Z,18.63
2022-12-26T20:00:21.160Z,11.90
2022-12-26T20:02:51.907Z,8.23
2022-12-26T20:05:21.094Z,11.00
2022-12-26T20:07:50.542Z,12.60
2022-12-26T20:10:31.912Z,11.63
2022-12-26T20:13:05.557Z,13.20
2022-12-26T20:16:03.466Z,12.40
2022-12-26T20:18:42.614Z,11.93
2022-12-26T20:21:18.336Z,14.10
2022-12-26T20:23:56.126Z,8.47
2022-12-26T20:26:27.941Z,10.13
2022-12-26T20:29:03.459Z,17.20
2022-12-26T20:31:43.111Z,9.10
2022-12-26T20:34:14.862Z,7.20
2022-12-26T20:36:46.118Z,7.90
2022-12-26T20:39:20.583Z,12.47
2022-12-26T20:41:59.378Z,8.53
2022-12-26T20:44:28.844Z,13.97
2022-12-26T20:47:11.083Z,10.20
2022-12-26T20:49:42.362Z,11.30
2022-12-26T20:52:13.647Z,7.73
2022-12-26T20:54:48.517Z,8.83
2022-12-26T20:57:23.087Z,10.27
2022-12-26T20:59:56.059Z,13.27
2022-12-26T21:02:27.227Z,10.07
2022-12-26T21:04:56.538Z,11.57
2022-12-26T21:07:30.927Z,6.50
2022-12-26T21:10:09.613Z,8.53
2022-12-26T21:12:43.298Z,7.03
2022-12-26T21:15:15.549Z,11.57
2022-12-26T21:17:49.710Z,9.80
2022-12-26T21:20:24.159Z,8.73
2022-12-26T21:23:09.474Z,10.43
2022-12-26T21:25:52.046Z,15.47
2022-12-26T21:28:28.166Z,10.33
2022-12-26T21:31:03.615Z,10.10
2022-12-26T21:33:44.472Z,9.33
2022-12-26T21:36:22.816Z,9.53
2022-12-26T21:39:02.074Z,9.47
2022-12-26T21:41:39.380Z,11.70
2022-12-26T21:44:09.857Z,10.63
2022-12-26T21:46:43.740Z,13.80
2022-12-26T21:49:14.999Z,8.53
2022-12-26T21:51:49.470Z,8.73
2022-12-26T21:54:49.005Z,8.43
2022-12-26T21:57:25.171Z,12.43
2022-12-26T21:59:59.632Z,10.73
2022-12-26T22:02:50.664Z,8.57
2022-12-26T22:05:29.056Z,8.17
2022-12-26T22:08:06.669Z,7.20
2022-12-26T22:10:53.306Z,10.00
2022-12-26T22:13:30.239Z,10.13
2022-12-26T22:16:16.826Z,8.10
2022-12-26T22:18:52.769Z,11.43
2022-12-26T22:21:26.071Z,9.80
2022-12-26T22:23:59.474Z,11.97
2022-12-26T22:26:30.697Z,8.37
2022-12-26T22:29:03.353Z,6.40
2022-12-26T22:31:39.716Z,12.13
2022-12-26T22:34:15.864Z,10.27
2022-12-26T22:36:46.331Z,9.87
2022-12-26T22:39:17.731Z,12.57
2022-12-26T22:41:50.462Z,13.77
2022-12-26T22:44:20.018Z,9.17
2022-12-26T22:46:51.171Z,13.50
2022-12-26T22:49:23.150Z,8.20
2022-12-26T22:51:53.235Z,9.67
2022-12-26T22:54:23.998Z,7.70
2022-12-26T22:56:58.860Z,10.53
2022-12-26T23:00:06.297Z,10.20
2022-12-26T23:02:21.912Z,9.67
2022-12-26T23:04:51.630Z,13.27
2022-12-26T23:07:26.374Z,9.27
2022-12-26T23:09:57.169Z,10.00
2022-12-26T23:12:45.236Z,8.90
2022-12-26T23:15:20.363Z,9.67
2022-12-26T23:18:13.651Z,10.47
2022-12-26T23:21:05.253Z,11.40
2022-12-26T23:23:39.308Z,11.80
2022-12-26T23:26:12.821Z,8.00
2022-12-26T23:28:59.221Z,8.90
2022-12-26T23:31:28.118Z,10.73
2022-12-26T23:33:57.184Z,7.43
2022-12-26T23:36:26.123Z,6.20
2022-12-26T23:38:58.085Z,10.43
2022-12-26T23:41:28.097Z,10.97
2022-12-26T23:43:57.420Z,11.03
2022-12-26T23:46:26.510Z,9.87
2022-12-26T23:48:55.520Z,11.13
2022-12-26T23:51:25.559Z,9.60
2022-12-26T23:53:56.690Z,9.07
2022-12-26T23:56:27.843Z,10.47
2022-12-26T23:58:57.893Z,10.50
